Cleveland, Ohio
Current Conditions -  °F | °C
As of 2:53 PM on Saturday 20 Dec 2014 (Local Time) from KBKL Reporting Station
Overcast Overcast  
Wind Chill: 26°   Ceiling: 2800
Heat Index: 32°   Visibility: 10mi
Dew Point: 22°   Wind: 6mph
Humidity: 66%   Direction: 260°W
Pressure: 30.26"   Gusts: NA
Location:  41.5°N, 81.69°W
Report Text: KBKL 201953Z 26005KT 10SM OVC028 00/M06 A3026 RMK AO2 SLP252 T00001056
Loading
Personal Weather Stations






























Interactive Weather Map New forecast layout! Learn more

10-Day Weather Forecast

Advertisements
Track Severe Weather on mobile